sensor_id;sensor_type;location;lat;lon;timestamp;P1;durP1;ratioP1;P2;durP2;ratioP2
56116;SDS011;41989;45.356;20.392;2023-03-31T00:00:05;12.65;;;5.13;;
56116;SDS011;41989;45.356;20.392;2023-03-31T00:02:36;10.38;;;5.13;;
56116;SDS011;41989;45.356;20.392;2023-03-31T00:05:05;12.10;;;6.18;;
56116;SDS011;41989;45.356;20.392;2023-03-31T00:07:32;10.45;;;5.75;;
56116;SDS011;41989;45.356;20.392;2023-03-31T00:10:02;11.05;;;5.60;;
56116;SDS011;41989;45.356;20.392;2023-03-31T00:12:28;13.38;;;5.65;;
56116;SDS011;41989;45.356;20.392;2023-03-31T00:14:54;14.55;;;5.65;;
56116;SDS011;41989;45.356;20.392;2023-03-31T00:17:20;11.90;;;6.03;;
56116;SDS011;41989;45.356;20.392;2023-03-31T00:19:46;11.38;;;5.82;;
56116;SDS011;41989;45.356;20.392;2023-03-31T00:22:14;10.80;;;5.13;;
56116;SDS011;41989;45.356;20.392;2023-03-31T00:24:47;20.67;;;7.65;;
56116;SDS011;41989;45.356;20.392;2023-03-31T00:27:13;14.55;;;6.13;;
56116;SDS011;41989;45.356;20.392;2023-03-31T00:29:39;13.85;;;5.68;;
56116;SDS011;41989;45.356;20.392;2023-03-31T00:32:07;13.10;;;5.22;;
56116;SDS011;41989;45.356;20.392;2023-03-31T00:34:33;13.27;;;6.22;;
56116;SDS011;41989;45.356;20.392;2023-03-31T00:36:59;14.07;;;4.70;;
56116;SDS011;41989;45.356;20.392;2023-03-31T00:39:27;13.43;;;4.72;;
56116;SDS011;41989;45.356;20.392;2023-03-31T00:41:56;10.55;;;4.80;;
56116;SDS011;41989;45.356;20.392;2023-03-31T00:44:23;9.50;;;4.00;;
56116;SDS011;41989;45.356;20.392;2023-03-31T00:51:48;10.75;;;3.83;;
56116;SDS011;41989;45.356;20.392;2023-03-31T00:54:16;10.73;;;3.67;;
56116;SDS011;41989;45.356;20.392;2023-03-31T00:56:44;7.22;;;3.42;;
56116;SDS011;41989;45.356;20.392;2023-03-31T00:59:12;11.32;;;3.90;;
56116;SDS011;41989;45.356;20.392;2023-03-31T01:01:39;8.45;;;3.78;;
56116;SDS011;41989;45.356;20.392;2023-03-31T01:04:07;13.70;;;5.60;;
56116;SDS011;41989;45.356;20.392;2023-03-31T01:06:34;11.38;;;3.10;;
56116;SDS011;41989;45.356;20.392;2023-03-31T01:09:06;7.80;;;4.13;;
56116;SDS011;41989;45.356;20.392;2023-03-31T01:11:32;8.63;;;3.38;;
56116;SDS011;41989;45.356;20.392;2023-03-31T01:13:59;7.07;;;3.00;;
56116;SDS011;41989;45.356;20.392;2023-03-31T01:16:28;7.90;;;3.17;;
56116;SDS011;41989;45.356;20.392;2023-03-31T01:18:54;10.43;;;4.65;;
56116;SDS011;41989;45.356;20.392;2023-03-31T01:32:00;8.75;;;3.50;;
56116;SDS011;41989;45.356;20.392;2023-03-31T01:34:36;12.52;;;4.65;;
56116;SDS011;41989;45.356;20.392;2023-03-31T01:42:19;10.40;;;4.95;;
56116;SDS011;41989;45.356;20.392;2023-03-31T01:57:23;65.70;;;49.80;;
56116;SDS011;41989;45.356;20.392;2023-03-31T02:00:11;24.27;;;15.25;;
56116;SDS011;41989;45.356;20.392;2023-03-31T02:05:40;14.15;;;5.10;;
56116;SDS011;41989;45.356;20.392;2023-03-31T02:08:09;7.82;;;3.65;;
56116;SDS011;41989;45.356;20.392;2023-03-31T02:10:37;17.35;;;5.53;;
56116;SDS011;41989;45.356;20.392;2023-03-31T02:13:03;13.18;;;3.72;;
56116;SDS011;41989;45.356;20.392;2023-03-31T02:15:32;11.70;;;4.18;;
56116;SDS011;41989;45.356;20.392;2023-03-31T02:18:00;17.40;;;5.00;;
56116;SDS011;41989;45.356;20.392;2023-03-31T02:20:30;14.37;;;5.10;;
56116;SDS011;41989;45.356;20.392;2023-03-31T02:22:57;17.50;;;5.35;;
56116;SDS011;41989;45.356;20.392;2023-03-31T02:25:27;8.60;;;4.25;;
56116;SDS011;41989;45.356;20.392;2023-03-31T02:27:55;9.80;;;3.97;;
56116;SDS011;41989;45.356;20.392;2023-03-31T02:30:23;9.27;;;3.60;;
56116;SDS011;41989;45.356;20.392;2023-03-31T02:32:53;12.93;;;4.85;;
56116;SDS011;41989;45.356;20.392;2023-03-31T02:35:20;13.70;;;4.80;;
56116;SDS011;41989;45.356;20.392;2023-03-31T02:37:47;15.38;;;6.10;;
56116;SDS011;41989;45.356;20.392;2023-03-31T02:40:17;17.58;;;6.57;;
56116;SDS011;41989;45.356;20.392;2023-03-31T02:42:54;18.40;;;6.28;;
56116;SDS011;41989;45.356;20.392;2023-03-31T02:47:59;9.52;;;3.75;;
56116;SDS011;41989;45.356;20.392;2023-03-31T02:50:25;9.85;;;3.53;;
56116;SDS011;41989;45.356;20.392;2023-03-31T02:52:59;7.28;;;3.92;;
56116;SDS011;41989;45.356;20.392;2023-03-31T03:13:29;7.55;;;3.70;;
56116;SDS011;41989;45.356;20.392;2023-03-31T03:18:27;8.18;;;3.50;;
56116;SDS011;41989;45.356;20.392;2023-03-31T03:20:53;10.23;;;4.80;;
56116;SDS011;41989;45.356;20.392;2023-03-31T03:23:20;8.60;;;3.95;;
56116;SDS011;41989;45.356;20.392;2023-03-31T03:25:46;8.38;;;3.25;;
56116;SDS011;41989;45.356;20.392;2023-03-31T03:28:12;7.63;;;4.22;;
56116;SDS011;41989;45.356;20.392;2023-03-31T03:30:38;9.38;;;4.20;;
56116;SDS011;41989;45.356;20.392;2023-03-31T03:33:05;12.63;;;5.65;;
56116;SDS011;41989;45.356;20.392;2023-03-31T03:35:31;9.90;;;3.83;;
56116;SDS011;41989;45.356;20.392;2023-03-31T03:37:58;7.32;;;3.65;;
56116;SDS011;41989;45.356;20.392;2023-03-31T03:40:24;9.50;;;4.72;;
56116;SDS011;41989;45.356;20.392;2023-03-31T03:42:50;10.88;;;3.65;;
56116;SDS011;41989;45.356;20.392;2023-03-31T03:45:18;7.97;;;3.83;;
56116;SDS011;41989;45.356;20.392;2023-03-31T03:47:45;10.57;;;3.30;;
56116;SDS011;41989;45.356;20.392;2023-03-31T03:50:11;8.82;;;3.90;;
56116;SDS011;41989;45.356;20.392;2023-03-31T03:52:38;5.88;;;3.33;;
56116;SDS011;41989;45.356;20.392;2023-03-31T03:55:04;9.07;;;4.50;;
56116;SDS011;41989;45.356;20.392;2023-03-31T03:57:30;6.95;;;2.92;;
56116;SDS011;41989;45.356;20.392;2023-03-31T03:59:56;6.60;;;3.70;;
56116;SDS011;41989;45.356;20.392;2023-03-31T04:02:22;8.20;;;3.00;;
56116;SDS011;41989;45.356;20.392;2023-03-31T04:04:49;6.15;;;3.70;;
56116;SDS011;41989;45.356;20.392;2023-03-31T04:07:16;11.85;;;4.10;;
56116;SDS011;41989;45.356;20.392;2023-03-31T04:09:42;8.18;;;3.70;;
56116;SDS011;41989;45.356;20.392;2023-03-31T04:12:08;7.80;;;4.28;;
56116;SDS011;41989;45.356;20.392;2023-03-31T04:14:35;10.68;;;4.07;;
56116;SDS011;41989;45.356;20.392;2023-03-31T04:17:01;10.02;;;3.83;;
56116;SDS011;41989;45.356;20.392;2023-03-31T04:19:27;6.93;;;3.92;;
56116;SDS011;41989;45.356;20.392;2023-03-31T04:21:53;18.48;;;10.20;;
56116;SDS011;41989;45.356;20.392;2023-03-31T04:24:23;45.25;;;23.05;;
56116;SDS011;41989;45.356;20.392;2023-03-31T04:26:54;27.85;;;15.02;;
56116;SDS011;41989;45.356;20.392;2023-03-31T04:29:20;32.45;;;16.75;;
56116;SDS011;41989;45.356;20.392;2023-03-31T04:31:54;33.03;;;16.88;;
56116;SDS011;41989;45.356;20.392;2023-03-31T04:34:23;37.13;;;18.92;;
56116;SDS011;41989;45.356;20.392;2023-03-31T04:36:59;25.98;;;12.90;;
56116;SDS011;41989;45.356;20.392;2023-03-31T04:39:26;27.80;;;15.80;;
56116;SDS011;41989;45.356;20.392;2023-03-31T04:41:54;17.20;;;10.57;;
56116;SDS011;41989;45.356;20.392;2023-03-31T04:44:20;23.92;;;15.68;;
56116;SDS011;41989;45.356;20.392;2023-03-31T04:46:46;22.73;;;12.25;;
56116;SDS011;41989;45.356;20.392;2023-03-31T04:49:13;25.05;;;15.75;;
56116;SDS011;41989;45.356;20.392;2023-03-31T04:51:39;53.22;;;14.52;;
56116;SDS011;41989;45.356;20.392;2023-03-31T04:54:05;27.38;;;8.82;;
56116;SDS011;41989;45.356;20.392;2023-03-31T04:56:31;13.45;;;4.85;;
56116;SDS011;41989;45.356;20.392;2023-03-31T04:58:58;13.93;;;5.95;;
56116;SDS011;41989;45.356;20.392;2023-03-31T05:01:28;8.38;;;4.28;;
56116;SDS011;41989;45.356;20.392;2023-03-31T05:03:57;7.27;;;4.37;;
56116;SDS011;41989;45.356;20.392;2023-03-31T05:06:24;8.77;;;4.13;;
56116;SDS011;41989;45.356;20.392;2023-03-31T05:08:50;8.05;;;3.35;;
56116;SDS011;41989;45.356;20.392;2023-03-31T05:11:16;6.00;;;3.13;;
56116;SDS011;41989;45.356;20.392;2023-03-31T05:13:42;6.90;;;2.70;;
56116;SDS011;41989;45.356;20.392;2023-03-31T05:16:10;4.47;;;2.28;;
56116;SDS011;41989;45.356;20.392;2023-03-31T05:18:38;8.63;;;2.53;;
56116;SDS011;41989;45.356;20.392;2023-03-31T05:21:11;6.45;;;2.65;;
56116;SDS011;41989;45.356;20.392;2023-03-31T05:23:41;6.85;;;2.78;;
56116;SDS011;41989;45.356;20.392;2023-03-31T05:26:08;7.53;;;2.30;;
56116;SDS011;41989;45.356;20.392;2023-03-31T05:28:35;8.13;;;2.50;;
56116;SDS011;41989;45.356;20.392;2023-03-31T05:31:02;5.70;;;2.20;;
56116;SDS011;41989;45.356;20.392;2023-03-31T05:33:28;5.20;;;2.28;;
56116;SDS011;41989;45.356;20.392;2023-03-31T05:35:55;7.28;;;2.97;;
56116;SDS011;41989;45.356;20.392;2023-03-31T05:38:21;7.05;;;2.78;;
56116;SDS011;41989;45.356;20.392;2023-03-31T05:40:47;5.28;;;2.20;;
56116;SDS011;41989;45.356;20.392;2023-03-31T05:43:14;7.55;;;2.30;;
56116;SDS011;41989;45.356;20.392;2023-03-31T05:45:40;8.20;;;2.42;;
56116;SDS011;41989;45.356;20.392;2023-03-31T05:48:06;9.68;;;3.10;;
56116;SDS011;41989;45.356;20.392;2023-03-31T05:50:32;6.93;;;2.35;;
56116;SDS011;41989;45.356;20.392;2023-03-31T05:52:58;9.00;;;3.45;;
56116;SDS011;41989;45.356;20.392;2023-03-31T05:55:24;6.13;;;2.60;;
56116;SDS011;41989;45.356;20.392;2023-03-31T05:57:50;8.05;;;3.55;;
56116;SDS011;41989;45.356;20.392;2023-03-31T06:00:16;9.02;;;3.28;;
56116;SDS011;41989;45.356;20.392;2023-03-31T06:02:42;6.05;;;2.78;;
56116;SDS011;41989;45.356;20.392;2023-03-31T06:05:11;8.48;;;3.97;;
56116;SDS011;41989;45.356;20.392;2023-03-31T06:07:37;11.52;;;3.85;;
56116;SDS011;41989;45.356;20.392;2023-03-31T06:10:03;6.40;;;3.17;;
56116;SDS011;41989;45.356;20.392;2023-03-31T06:12:34;8.68;;;3.22;;
56116;SDS011;41989;45.356;20.392;2023-03-31T06:15:00;12.55;;;3.72;;
56116;SDS011;41989;45.356;20.392;2023-03-31T06:17:26;11.45;;;3.47;;
56116;SDS011;41989;45.356;20.392;2023-03-31T06:19:52;7.47;;;3.63;;
56116;SDS011;41989;45.356;20.392;2023-03-31T06:22:18;10.75;;;3.35;;
56116;SDS011;41989;45.356;20.392;2023-03-31T06:24:45;9.20;;;3.92;;
56116;SDS011;41989;45.356;20.392;2023-03-31T06:27:11;10.52;;;4.25;;
56116;SDS011;41989;45.356;20.392;2023-03-31T06:29:37;17.00;;;3.78;;
56116;SDS011;41989;45.356;20.392;2023-03-31T06:32:03;6.80;;;2.80;;
56116;SDS011;41989;45.356;20.392;2023-03-31T06:34:29;10.55;;;3.00;;
56116;SDS011;41989;45.356;20.392;2023-03-31T06:36:55;7.95;;;2.55;;
56116;SDS011;41989;45.356;20.392;2023-03-31T06:39:24;6.15;;;3.50;;
56116;SDS011;41989;45.356;20.392;2023-03-31T06:41:50;7.63;;;3.20;;
56116;SDS011;41989;45.356;20.392;2023-03-31T06:44:16;6.95;;;2.53;;
56116;SDS011;41989;45.356;20.392;2023-03-31T06:46:43;6.85;;;2.97;;
56116;SDS011;41989;45.356;20.392;2023-03-31T06:49:09;6.53;;;2.90;;
56116;SDS011;41989;45.356;20.392;2023-03-31T06:51:35;9.50;;;2.90;;
56116;SDS011;41989;45.356;20.392;2023-03-31T06:54:01;5.68;;;3.00;;
56116;SDS011;41989;45.356;20.392;2023-03-31T06:56:27;10.60;;;2.83;;
56116;SDS011;41989;45.356;20.392;2023-03-31T06:58:53;9.38;;;2.88;;
56116;SDS011;41989;45.356;20.392;2023-03-31T07:01:20;9.30;;;2.95;;
56116;SDS011;41989;45.356;20.392;2023-03-31T07:03:46;6.50;;;2.35;;
56116;SDS011;41989;45.356;20.392;2023-03-31T07:06:12;5.72;;;1.95;;
56116;SDS011;41989;45.356;20.392;2023-03-31T07:08:38;8.40;;;3.33;;
56116;SDS011;41989;45.356;20.392;2023-03-31T07:11:04;7.75;;;2.42;;
56116;SDS011;41989;45.356;20.392;2023-03-31T07:13:30;7.65;;;2.67;;
56116;SDS011;41989;45.356;20.392;2023-03-31T07:15:56;6.20;;;2.58;;
56116;SDS011;41989;45.356;20.392;2023-03-31T07:18:23;8.18;;;2.50;;
56116;SDS011;41989;45.356;20.392;2023-03-31T07:20:56;7.63;;;2.60;;
56116;SDS011;41989;45.356;20.392;2023-03-31T07:23:22;9.45;;;3.05;;
56116;SDS011;41989;45.356;20.392;2023-03-31T07:25:48;9.25;;;3.03;;
56116;SDS011;41989;45.356;20.392;2023-03-31T07:28:14;7.32;;;2.35;;
56116;SDS011;41989;45.356;20.392;2023-03-31T07:30:41;6.97;;;2.40;;
56116;SDS011;41989;45.356;20.392;2023-03-31T07:33:07;5.05;;;2.33;;
56116;SDS011;41989;45.356;20.392;2023-03-31T07:35:36;8.50;;;2.55;;
56116;SDS011;41989;45.356;20.392;2023-03-31T07:38:02;8.63;;;2.63;;
56116;SDS011;41989;45.356;20.392;2023-03-31T07:40:28;9.30;;;2.90;;
56116;SDS011;41989;45.356;20.392;2023-03-31T07:42:54;6.03;;;2.45;;
56116;SDS011;41989;45.356;20.392;2023-03-31T07:45:21;9.07;;;3.22;;
56116;SDS011;41989;45.356;20.392;2023-03-31T07:47:48;6.28;;;2.80;;
56116;SDS011;41989;45.356;20.392;2023-03-31T07:50:15;8.10;;;2.65;;
56116;SDS011;41989;45.356;20.392;2023-03-31T07:52:41;8.38;;;2.60;;
56116;SDS011;41989;45.356;20.392;2023-03-31T07:55:07;11.77;;;3.22;;
56116;SDS011;41989;45.356;20.392;2023-03-31T07:57:34;7.93;;;2.20;;
56116;SDS011;41989;45.356;20.392;2023-03-31T08:00:00;12.20;;;2.92;;
56116;SDS011;41989;45.356;20.392;2023-03-31T08:02:31;8.85;;;2.92;;
56116;SDS011;41989;45.356;20.392;2023-03-31T08:04:57;6.05;;;2.35;;
56116;SDS011;41989;45.356;20.392;2023-03-31T08:07:23;10.43;;;2.65;;
56116;SDS011;41989;45.356;20.392;2023-03-31T08:09:50;6.97;;;3.15;;
56116;SDS011;41989;45.356;20.392;2023-03-31T08:12:16;12.65;;;3.75;;
56116;SDS011;41989;45.356;20.392;2023-03-31T08:14:42;9.02;;;2.80;;
56116;SDS011;41989;45.356;20.392;2023-03-31T08:17:09;9.95;;;2.83;;
56116;SDS011;41989;45.356;20.392;2023-03-31T08:19:35;6.55;;;2.45;;
56116;SDS011;41989;45.356;20.392;2023-03-31T08:22:01;9.70;;;2.40;;
56116;SDS011;41989;45.356;20.392;2023-03-31T08:24:28;6.03;;;2.72;;
56116;SDS011;41989;45.356;20.392;2023-03-31T08:26:54;5.25;;;2.47;;
56116;SDS011;41989;45.356;20.392;2023-03-31T08:29:20;10.32;;;3.15;;
56116;SDS011;41989;45.356;20.392;2023-03-31T08:31:46;6.80;;;2.67;;
56116;SDS011;41989;45.356;20.392;2023-03-31T08:34:13;10.07;;;2.63;;
56116;SDS011;41989;45.356;20.392;2023-03-31T08:36:39;9.25;;;2.92;;
56116;SDS011;41989;45.356;20.392;2023-03-31T08:39:05;7.88;;;2.80;;
56116;SDS011;41989;45.356;20.392;2023-03-31T08:44:19;5.38;;;1.75;;
56116;SDS011;41989;45.356;20.392;2023-03-31T08:49:14;4.28;;;2.05;;
56116;SDS011;41989;45.356;20.392;2023-03-31T08:51:42;10.05;;;2.60;;
56116;SDS011;41989;45.356;20.392;2023-03-31T08:56:37;6.53;;;2.50;;
56116;SDS011;41989;45.356;20.392;2023-03-31T08:59:05;3.72;;;1.67;;
56116;SDS011;41989;45.356;20.392;2023-03-31T09:06:55;5.75;;;1.80;;
56116;SDS011;41989;45.356;20.392;2023-03-31T09:09:37;6.47;;;1.90;;
56116;SDS011;41989;45.356;20.392;2023-03-31T09:12:06;9.55;;;2.65;;
56116;SDS011;41989;45.356;20.392;2023-03-31T09:14:50;4.72;;;1.70;;
56116;SDS011;41989;45.356;20.392;2023-03-31T09:17:26;6.80;;;1.60;;
56116;SDS011;41989;45.356;20.392;2023-03-31T09:19:55;5.65;;;2.22;;
56116;SDS011;41989;45.356;20.392;2023-03-31T09:22:24;10.50;;;7.03;;
56116;SDS011;41989;45.356;20.392;2023-03-31T09:27:20;14.75;;;5.03;;
56116;SDS011;41989;45.356;20.392;2023-03-31T09:32:20;7.68;;;2.30;;
56116;SDS011;41989;45.356;20.392;2023-03-31T09:34:47;5.45;;;2.28;;
56116;SDS011;41989;45.356;20.392;2023-03-31T09:37:15;7.22;;;2.22;;
56116;SDS011;41989;45.356;20.392;2023-03-31T09:39:41;10.68;;;2.17;;
56116;SDS011;41989;45.356;20.392;2023-03-31T09:42:09;6.32;;;1.63;;
56116;SDS011;41989;45.356;20.392;2023-03-31T09:44:42;5.20;;;2.00;;
56116;SDS011;41989;45.356;20.392;2023-03-31T09:49:44;4.95;;;2.08;;
56116;SDS011;41989;45.356;20.392;2023-03-31T09:54:40;6.53;;;2.10;;
56116;SDS011;41989;45.356;20.392;2023-03-31T09:57:29;5.88;;;2.33;;
56116;SDS011;41989;45.356;20.392;2023-03-31T10:00:04;4.63;;;1.88;;
56116;SDS011;41989;45.356;20.392;2023-03-31T10:02:44;14.27;;;2.35;;
56116;SDS011;41989;45.356;20.392;2023-03-31T10:10:36;7.20;;;1.80;;
56116;SDS011;41989;45.356;20.392;2023-03-31T10:13:06;8.52;;;2.05;;
56116;SDS011;41989;45.356;20.392;2023-03-31T10:15:36;5.47;;;2.13;;
56116;SDS011;41989;45.356;20.392;2023-03-31T10:18:02;5.78;;;2.08;;
56116;SDS011;41989;45.356;20.392;2023-03-31T10:22:55;7.50;;;2.00;;
56116;SDS011;41989;45.356;20.392;2023-03-31T10:25:22;8.90;;;1.50;;
56116;SDS011;41989;45.356;20.392;2023-03-31T10:27:52;6.72;;;1.90;;
56116;SDS011;41989;45.356;20.392;2023-03-31T10:30:20;9.07;;;1.60;;
56116;SDS011;41989;45.356;20.392;2023-03-31T10:32:46;4.10;;;1.48;;
56116;SDS011;41989;45.356;20.392;2023-03-31T10:35:25;3.78;;;1.45;;
56116;SDS011;41989;45.356;20.392;2023-03-31T10:37:57;5.10;;;1.55;;
56116;SDS011;41989;45.356;20.392;2023-03-31T10:40:26;6.13;;;2.05;;
56116;SDS011;41989;45.356;20.392;2023-03-31T10:43:00;6.85;;;1.58;;
56116;SDS011;41989;45.356;20.392;2023-03-31T10:45:28;7.35;;;1.70;;
56116;SDS011;41989;45.356;20.392;2023-03-31T10:47:57;9.40;;;2.08;;
56116;SDS011;41989;45.356;20.392;2023-03-31T10:50:32;6.60;;;1.55;;
56116;SDS011;41989;45.356;20.392;2023-03-31T10:55:35;6.43;;;2.40;;
56116;SDS011;41989;45.356;20.392;2023-03-31T10:58:08;6.95;;;1.70;;
56116;SDS011;41989;45.356;20.392;2023-03-31T11:11:13;9.23;;;2.70;;
56116;SDS011;41989;45.356;20.392;2023-03-31T11:16:36;5.45;;;1.60;;
56116;SDS011;41989;45.356;20.392;2023-03-31T11:24:36;4.95;;;1.70;;
56116;SDS011;41989;45.356;20.392;2023-03-31T11:29:47;4.07;;;1.30;;
56116;SDS011;41989;45.356;20.392;2023-03-31T11:37:56;3.78;;;1.60;;
56116;SDS011;41989;45.356;20.392;2023-03-31T11:45:48;5.30;;;1.80;;
56116;SDS011;41989;45.356;20.392;2023-03-31T11:48:18;9.50;;;2.55;;
56116;SDS011;41989;45.356;20.392;2023-03-31T11:50:46;3.65;;;1.20;;
56116;SDS011;41989;45.356;20.392;2023-03-31T11:53:14;3.28;;;1.02;;
56116;SDS011;41989;45.356;20.392;2023-03-31T11:55:42;6.63;;;1.70;;
56116;SDS011;41989;45.356;20.392;2023-03-31T11:58:15;5.35;;;1.23;;
56116;SDS011;41989;45.356;20.392;2023-03-31T12:00:46;9.30;;;1.70;;
56116;SDS011;41989;45.356;20.392;2023-03-31T12:05:43;4.80;;;1.55;;
56116;SDS011;41989;45.356;20.392;2023-03-31T12:10:47;3.47;;;1.70;;
56116;SDS011;41989;45.356;20.392;2023-03-31T12:16:03;7.45;;;3.75;;
56116;SDS011;41989;45.356;20.392;2023-03-31T12:18:34;5.25;;;1.55;;
56116;SDS011;41989;45.356;20.392;2023-03-31T12:21:02;3.70;;;1.75;;
56116;SDS011;41989;45.356;20.392;2023-03-31T12:23:30;5.57;;;2.10;;
56116;SDS011;41989;45.356;20.392;2023-03-31T12:26:02;4.25;;;1.65;;
56116;SDS011;41989;45.356;20.392;2023-03-31T12:28:31;2.60;;;1.20;;
56116;SDS011;41989;45.356;20.392;2023-03-31T12:30:59;4.32;;;2.03;;
56116;SDS011;41989;45.356;20.392;2023-03-31T12:33:27;4.53;;;1.60;;
56116;SDS011;41989;45.356;20.392;2023-03-31T12:41:09;5.68;;;1.70;;
56116;SDS011;41989;45.356;20.392;2023-03-31T12:46:39;5.07;;;1.52;;
56116;SDS011;41989;45.356;20.392;2023-03-31T12:54:45;7.05;;;2.30;;
56116;SDS011;41989;45.356;20.392;2023-03-31T12:57:19;7.85;;;1.95;;
56116;SDS011;41989;45.356;20.392;2023-03-31T12:59:46;5.72;;;1.50;;
56116;SDS011;41989;45.356;20.392;2023-03-31T13:02:42;6.45;;;1.60;;
56116;SDS011;41989;45.356;20.392;2023-03-31T13:07:53;5.10;;;1.77;;
56116;SDS011;41989;45.356;20.392;2023-03-31T13:10:24;4.32;;;1.50;;
56116;SDS011;41989;45.356;20.392;2023-03-31T13:13:01;6.15;;;1.75;;
56116;SDS011;41989;45.356;20.392;2023-03-31T13:15:27;4.50;;;1.60;;
56116;SDS011;41989;45.356;20.392;2023-03-31T13:17:58;7.90;;;1.70;;
56116;SDS011;41989;45.356;20.392;2023-03-31T13:27:56;6.93;;;1.60;;
56116;SDS011;41989;45.356;20.392;2023-03-31T13:33:23;6.80;;;1.60;;
56116;SDS011;41989;45.356;20.392;2023-03-31T13:52:03;5.25;;;2.10;;
56116;SDS011;41989;45.356;20.392;2023-03-31T14:01:55;10.40;;;1.88;;
56116;SDS011;41989;45.356;20.392;2023-03-31T14:04:29;6.80;;;2.15;;
56116;SDS011;41989;45.356;20.392;2023-03-31T14:09:47;18.05;;;2.92;;
56116;SDS011;41989;45.356;20.392;2023-03-31T14:14:53;23.52;;;3.85;;
56116;SDS011;41989;45.356;20.392;2023-03-31T14:17:21;25.05;;;4.32;;
56116;SDS011;41989;45.356;20.392;2023-03-31T14:30:40;94.60;;;43.75;;
56116;SDS011;41989;45.356;20.392;2023-03-31T14:35:56;6.25;;;2.50;;
56116;SDS011;41989;45.356;20.392;2023-03-31T14:38:25;6.72;;;3.95;;
56116;SDS011;41989;45.356;20.392;2023-03-31T14:40:52;6.00;;;2.20;;
56116;SDS011;41989;45.356;20.392;2023-03-31T14:43:22;5.68;;;1.83;;
56116;SDS011;41989;45.356;20.392;2023-03-31T14:45:59;7.47;;;2.00;;
56116;SDS011;41989;45.356;20.392;2023-03-31T14:48:27;7.57;;;3.22;;
56116;SDS011;41989;45.356;20.392;2023-03-31T14:50:55;9.18;;;2.10;;
56116;SDS011;41989;45.356;20.392;2023-03-31T14:53:25;7.03;;;2.45;;
56116;SDS011;41989;45.356;20.392;2023-03-31T14:56:00;34.75;;;4.60;;
56116;SDS011;41989;45.356;20.392;2023-03-31T14:58:31;4.78;;;1.92;;
56116;SDS011;41989;45.356;20.392;2023-03-31T15:00:59;6.03;;;2.10;;
56116;SDS011;41989;45.356;20.392;2023-03-31T15:03:25;34.72;;;5.00;;
56116;SDS011;41989;45.356;20.392;2023-03-31T15:05:54;32.53;;;5.70;;
56116;SDS011;41989;45.356;20.392;2023-03-31T15:08:22;7.20;;;2.13;;
56116;SDS011;41989;45.356;20.392;2023-03-31T15:10:50;4.82;;;1.77;;
56116;SDS011;41989;45.356;20.392;2023-03-31T15:13:24;5.97;;;1.77;;
56116;SDS011;41989;45.356;20.392;2023-03-31T15:15:52;3.00;;;1.73;;
56116;SDS011;41989;45.356;20.392;2023-03-31T15:18:18;7.97;;;2.55;;
56116;SDS011;41989;45.356;20.392;2023-03-31T15:20:46;6.72;;;2.20;;
56116;SDS011;41989;45.356;20.392;2023-03-31T15:23:22;13.18;;;2.83;;
56116;SDS011;41989;45.356;20.392;2023-03-31T15:25:55;11.02;;;1.88;;
56116;SDS011;41989;45.356;20.392;2023-03-31T15:28:22;8.23;;;2.53;;
56116;SDS011;41989;45.356;20.392;2023-03-31T15:30:51;7.82;;;2.55;;
56116;SDS011;41989;45.356;20.392;2023-03-31T15:33:18;6.50;;;3.13;;
56116;SDS011;41989;45.356;20.392;2023-03-31T15:35:46;6.88;;;2.47;;
56116;SDS011;41989;45.356;20.392;2023-03-31T15:38:13;6.88;;;2.28;;
56116;SDS011;41989;45.356;20.392;2023-03-31T15:40:42;4.75;;;1.98;;
56116;SDS011;41989;45.356;20.392;2023-03-31T15:43:13;9.00;;;2.50;;
56116;SDS011;41989;45.356;20.392;2023-03-31T15:48:17;7.90;;;1.92;;
56116;SDS011;41989;45.356;20.392;2023-03-31T15:50:46;5.05;;;2.53;;
56116;SDS011;41989;45.356;20.392;2023-03-31T15:53:24;60.70;;;48.90;;
56116;SDS011;41989;45.356;20.392;2023-03-31T15:55:55;11.00;;;8.57;;
56116;SDS011;41989;45.356;20.392;2023-03-31T15:58:24;8.77;;;5.15;;
56116;SDS011;41989;45.356;20.392;2023-03-31T16:01:10;21.73;;;9.90;;
56116;SDS011;41989;45.356;20.392;2023-03-31T16:03:39;11.75;;;4.60;;
56116;SDS011;41989;45.356;20.392;2023-03-31T16:06:28;12.73;;;6.03;;
56116;SDS011;41989;45.356;20.392;2023-03-31T16:08:59;14.95;;;6.82;;
56116;SDS011;41989;45.356;20.392;2023-03-31T16:17:05;12.15;;;5.05;;
56116;SDS011;41989;45.356;20.392;2023-03-31T16:22:33;12.50;;;4.55;;
56116;SDS011;41989;45.356;20.392;2023-03-31T16:27:27;25.08;;;10.98;;
56116;SDS011;41989;45.356;20.392;2023-03-31T16:30:07;110.53;;;49.88;;
56116;SDS011;41989;45.356;20.392;2023-03-31T16:35:00;35.67;;;17.48;;
56116;SDS011;41989;45.356;20.392;2023-03-31T16:37:27;28.23;;;13.20;;
56116;SDS011;41989;45.356;20.392;2023-03-31T16:39:53;21.20;;;10.88;;
56116;SDS011;41989;45.356;20.392;2023-03-31T16:42:22;22.70;;;14.70;;
56116;SDS011;41989;45.356;20.392;2023-03-31T16:44:48;21.45;;;13.00;;
56116;SDS011;41989;45.356;20.392;2023-03-31T16:47:14;48.65;;;25.67;;
56116;SDS011;41989;45.356;20.392;2023-03-31T16:49:40;46.33;;;25.88;;
56116;SDS011;41989;45.356;20.392;2023-03-31T16:52:09;46.25;;;28.15;;
56116;SDS011;41989;45.356;20.392;2023-03-31T16:54:36;53.87;;;30.37;;
56116;SDS011;41989;45.356;20.392;2023-03-31T16:57:02;45.45;;;25.48;;
56116;SDS011;41989;45.356;20.392;2023-03-31T16:59:28;34.60;;;20.10;;
56116;SDS011;41989;45.356;20.392;2023-03-31T17:01:57;59.88;;;31.17;;
56116;SDS011;41989;45.356;20.392;2023-03-31T17:04:23;60.63;;;32.30;;
56116;SDS011;41989;45.356;20.392;2023-03-31T17:06:49;63.08;;;33.47;;
56116;SDS011;41989;45.356;20.392;2023-03-31T17:09:18;64.70;;;35.85;;
56116;SDS011;41989;45.356;20.392;2023-03-31T17:11:44;68.60;;;38.78;;
56116;SDS011;41989;45.356;20.392;2023-03-31T17:14:12;84.40;;;44.97;;
56116;SDS011;41989;45.356;20.392;2023-03-31T17:16:39;76.13;;;43.92;;
56116;SDS011;41989;45.356;20.392;2023-03-31T17:19:05;70.22;;;38.80;;
56116;SDS011;41989;45.356;20.392;2023-03-31T17:21:33;62.58;;;34.90;;
56116;SDS011;41989;45.356;20.392;2023-03-31T17:24:01;63.45;;;35.88;;
56116;SDS011;41989;45.356;20.392;2023-03-31T17:26:27;48.42;;;27.00;;
56116;SDS011;41989;45.356;20.392;2023-03-31T17:28:53;57.42;;;29.15;;
56116;SDS011;41989;45.356;20.392;2023-03-31T17:31:20;57.55;;;31.10;;
56116;SDS011;41989;45.356;20.392;2023-03-31T17:33:46;60.28;;;29.92;;
56116;SDS011;41989;45.356;20.392;2023-03-31T17:36:13;73.45;;;34.63;;
56116;SDS011;41989;45.356;20.392;2023-03-31T17:38:39;65.70;;;34.72;;
56116;SDS011;41989;45.356;20.392;2023-03-31T17:41:06;64.50;;;37.92;;
56116;SDS011;41989;45.356;20.392;2023-03-31T17:43:33;68.50;;;36.00;;
56116;SDS011;41989;45.356;20.392;2023-03-31T17:46:17;68.00;;;41.95;;
56116;SDS011;41989;45.356;20.392;2023-03-31T17:48:43;71.50;;;41.45;;
56116;SDS011;41989;45.356;20.392;2023-03-31T17:51:11;61.38;;;36.47;;
56116;SDS011;41989;45.356;20.392;2023-03-31T17:53:39;50.50;;;31.45;;
56116;SDS011;41989;45.356;20.392;2023-03-31T17:56:05;47.53;;;28.65;;
56116;SDS011;41989;45.356;20.392;2023-03-31T17:58:31;47.53;;;28.48;;
56116;SDS011;41989;45.356;20.392;2023-03-31T18:00:58;54.58;;;34.40;;
56116;SDS011;41989;45.356;20.392;2023-03-31T18:03:26;59.97;;;36.55;;
56116;SDS011;41989;45.356;20.392;2023-03-31T18:05:53;55.80;;;35.40;;
56116;SDS011;41989;45.356;20.392;2023-03-31T18:08:19;83.55;;;51.65;;
56116;SDS011;41989;45.356;20.392;2023-03-31T18:10:46;85.03;;;51.67;;